Time;durP1;ratioP1;P1;durP2;ratioP2;P2;SDS_P1;SDS_P2;PMS_P1;PMS_P2;Temp;Humidity;BMP_temperature;BMP_pressure;BME280_temperature;BME280_humidity;BME280_pressure;Samples;Min_cycle;Max_cycle;Signal;HPM_P1;HPM_P2
2023/04/05 00:01:27;;;;;;;5.85;4.93;;;2.10;99.90;;;;;;6244312;22;20171;-87
2023/04/05 00:03:56;;;;;;;8.05;4.88;;;2.10;99.90;;;;;;6242930;22;20204;-87
2023/04/05 00:06:25;;;;;;;4.68;4.20;;;2.10;1.00;;;;;;6238508;23;20183;-88
2023/04/05 00:08:54;;;;;;;9.65;5.13;;;1.80;1.00;;;;;;6234848;23;20192;-87
2023/04/05 00:11:22;;;;;;;6.55;4.72;;;;;;;;;;6228380;23;20246;-88
2023/04/05 00:13:49;;;;;;;7.63;5.15;;;2.40;1.00;;;;;;6230240;23;20201;-87
2023/04/05 00:16:16;;;;;;;6.65;4.68;;;1.90;1.00;;;;;;6230282;23;20187;-88
2023/04/05 00:18:48;;;;;;;5.22;4.72;;;1.90;1.00;;;;;;6232758;23;20229;-88
2023/04/05 00:21:15;;;;;;;4.95;4.38;;;1.70;1.00;;;;;;6229598;23;20177;-88
2023/04/05 00:23:43;;;;;;;8.18;4.32;;;;;;;;;;6228930;23;20199;-88
2023/04/05 00:26:11;;;;;;;8.90;4.80;;;2.80;22.90;;;;;;6228560;23;20182;-88
2023/04/05 00:28:38;;;;;;;7.05;5.15;;;1.70;99.90;;;;;;6227677;23;20199;-88
2023/04/05 00:31:06;;;;;;;10.82;5.43;;;1.50;1.00;;;;;;6227821;23;20203;-87
2023/04/05 00:33:33;;;;;;;6.85;4.03;;;;;;;;;;6226566;23;20698;-87
2023/04/05 00:36:13;;;;;;;5.80;4.28;;;;;;;;;;6225367;23;20216;-87
2023/04/05 00:38:41;;;;;;;8.43;4.72;;;1.70;99.90;;;;;;6226451;23;20163;-88
2023/04/05 00:41:09;;;;;;;6.13;4.75;;;;;;;;;;6226555;23;20175;-87
2023/04/05 00:43:36;;;;;;;5.45;4.25;;;;;;;;;;6226140;23;20259;-88
2023/04/05 00:46:04;;;;;;;6.65;4.50;;;;;;;;;;6226239;23;20172;-87
2023/04/05 00:48:32;;;;;;;6.18;4.43;;;;;;;;;;6225469;23;20177;-88
2023/04/05 00:51:00;;;;;;;5.40;4.28;;;;;;;;;;6227020;23;20177;-86
2023/04/05 00:53:33;;;;;;;9.60;5.28;;;;;;;;;;6241938;22;20202;-85
2023/04/05 00:56:02;;;;;;;11.38;4.85;;;1.60;56.50;;;;;;6241433;22;20174;-87
2023/04/05 00:58:32;;;;;;;5.43;3.97;;;1.80;94.00;;;;;;6227750;23;20177;-87
2023/04/05 01:01:06;;;;;;;9.45;4.30;;;1.40;99.90;;;;;;6227217;23;20550;-87
2023/04/05 01:03:35;;;;;;;7.25;4.90;;;1.40;1.00;;;;;;6227264;23;20660;-87
2023/04/05 01:06:16;;;;;;;7.68;4.07;;;1.40;99.90;;;;;;6228194;23;20182;-89
2023/04/05 01:09:06;;;;;;;5.20;4.63;;;1.50;99.90;;;;;;6245389;22;20158;-88
2023/04/05 01:11:38;;;;;;;7.53;4.03;;;1.50;1.00;;;;;;6245454;22;20161;-87
2023/04/05 01:14:05;;;;;;;6.40;4.80;;;;;;;;;;6231670;23;20203;-88
2023/04/05 01:16:33;;;;;;;5.63;3.92;;;;;;;;;;6228008;23;20230;-87
2023/04/05 01:19:03;;;;;;;5.35;3.17;;;;;;;;;;6229625;23;20237;-87
2023/04/05 01:22:12;;;;;;;3.90;3.53;;;1.50;99.90;;;;;;6231178;23;20182;-87
2023/04/05 01:24:56;;;;;;;4.90;3.63;;;1.60;99.90;;;;;;6230200;23;20177;-87
2023/04/05 01:27:44;;;;;;;8.10;4.40;;;1.70;99.90;;;;;;6231057;23;20180;-87
2023/04/05 01:30:22;;;;;;;3.80;3.50;;;1.60;99.90;;;;;;6241692;23;20206;-86
2023/04/05 01:33:04;;;;;;;4.72;4.00;;;1.50;99.90;;;;;;6232258;23;20198;-87
2023/04/05 01:35:43;;;;;;;5.13;3.72;;;1.40;99.90;;;;;;6228212;23;20184;-87
2023/04/05 01:38:20;;;;;;;6.82;4.20;;;1.40;99.90;;;;;;6227299;23;20184;-87
2023/04/05 01:40:48;;;;;;;5.90;4.57;;;1.30;99.90;;;;;;6227863;23;20240;-87
2023/04/05 01:43:15;;;;;;;6.60;4.07;;;;;;;;;;6239312;23;20190;-87
2023/04/05 01:45:45;;;;;;;4.65;3.35;;;1.40;1.00;;;;;;6243548;23;20166;-87
2023/04/05 01:48:12;;;;;;;4.20;3.80;;;;;;;;;;6236089;23;20207;-88
2023/04/05 01:50:39;;;;;;;9.60;5.13;;;;;;;;;;6232699;23;20195;-87
2023/04/05 01:53:08;;;;;;;5.22;4.18;;;;;;;;;;6227581;23;20210;-86
2023/04/05 01:55:35;;;;;;;5.20;3.50;;;;;;;;;;6241323;22;20214;-87
2023/04/05 01:58:02;;;;;;;6.38;4.70;;;;;;;;;;6244548;22;20190;-87
2023/04/05 02:00:30;;;;;;;8.27;3.45;;;;;;;;;;6242467;23;20178;-86
2023/04/05 02:02:58;;;;;;;7.28;4.05;;;;;;;;;;6240987;23;20228;-88
2023/04/05 02:05:29;;;;;;;4.28;3.78;;;;;;;;;;6232745;23;20227;-88
2023/04/05 02:07:58;;;;;;;7.20;4.38;;;;;;;;;;6231510;23;20246;-87
2023/04/05 02:10:25;;;;;;;3.55;3.25;;;;;;;;;;6229361;23;20647;-88
2023/04/05 02:12:57;;;;;;;4.80;3.80;;;;;;;;;;6239427;23;20222;-87
2023/04/05 02:15:26;;;;;;;5.07;4.60;;;;;;;;;;6228301;23;20200;-87
2023/04/05 02:18:02;;;;;;;5.55;4.30;;;;;;;;;;6228562;23;20187;-87
2023/04/05 02:20:31;;;;;;;9.95;4.28;;;;;;;;;;6228499;23;20184;-87
2023/04/05 02:23:01;;;;;;;7.53;3.80;;;;;;;;;;6232537;23;20194;-87
2023/04/05 02:25:32;;;;;;;5.47;4.30;;;;;;;;;;6227843;23;20178;-87
2023/04/05 02:28:00;;;;;;;8.65;4.03;;;;;;;;;;6237441;22;20162;-87
2023/04/05 02:30:27;;;;;;;5.95;4.35;;;;;;;;;;6244474;22;20188;-87
2023/04/05 02:32:55;;;;;;;5.18;4.30;;;;;;;;;;6244173;22;20204;-88
2023/04/05 02:35:22;;;;;;;3.50;3.20;;;1.80;99.90;;;;;;6242368;23;20170;-88
2023/04/05 02:37:51;;;;;;;5.95;4.10;;;1.80;1.00;;;;;;6230355;23;20180;-87
2023/04/05 02:40:18;;;;;;;3.75;3.25;;;2.10;44.60;;;;;;6223368;23;20186;-87
2023/04/05 02:42:45;;;;;;;8.38;3.55;;;;;;;;;;6223847;23;20199;-87
2023/04/05 02:45:12;;;;;;;7.07;3.85;;;2.10;99.90;;;;;;6224334;23;20181;-87
2023/04/05 02:47:39;;;;;;;4.35;3.63;;;2.40;1.00;;;;;;6224947;23;20178;-86
2023/04/05 02:50:07;;;;;;;5.55;3.20;;;;;;;;;;6224323;23;20194;-86
2023/04/05 02:52:36;;;;;;;3.45;3.15;;;;;;;;;;6234851;22;20192;-88
2023/04/05 02:55:05;;;;;;;4.40;3.38;;;2.00;1.00;;;;;;6244723;22;20174;-87
2023/04/05 02:57:32;;;;;;;4.55;4.25;;;2.10;1.00;;;;;;6244745;22;20181;-85
2023/04/05 02:59:58;;;;;;;4.68;4.05;;;2.00;1.00;;;;;;6244896;22;20167;-86
2023/04/05 03:02:26;;;;;;;6.85;3.83;;;2.40;1.00;;;;;;6244763;22;20188;-85
2023/04/05 03:04:53;;;;;;;4.63;3.97;;;1.90;10.50;;;;;;6244234;22;20220;-86
2023/04/05 03:07:20;;;;;;;6.40;3.65;;;2.10;45.40;;;;;;6237311;23;20200;-87
2023/04/05 03:09:47;;;;;;;6.28;4.30;;;2.40;1.00;;;;;;6243936;22;20163;-88
2023/04/05 03:12:16;;;;;;;4.57;4.18;;;2.30;1.00;;;;;;6244086;22;20163;-86
2023/04/05 03:14:44;;;;;;;7.78;3.60;;;2.50;99.90;;;;;;6240672;23;20169;-88
2023/04/05 03:17:11;;;;;;;4.72;3.85;;;1.90;1.00;;;;;;6232841;23;20208;-87
2023/04/05 03:19:39;;;;;;;8.00;3.30;;;2.20;99.90;;;;;;6230494;23;20202;-88
2023/04/05 03:22:11;;;;;;;11.45;4.63;;;;;;;;;;6230380;23;20178;-87
2023/04/05 03:24:41;;;;;;;4.60;3.40;;;;;;;;;;6232670;23;20242;-88
2023/04/05 03:27:12;;;;;;;3.30;3.00;;;;;;;;;;6234543;23;20249;-87
2023/04/05 03:29:56;;;;;;;4.20;3.80;;;2.30;99.90;;;;;;6232505;23;20531;-88
2023/04/05 03:32:23;;;;;;;5.20;4.35;;;;;;;;;;6229911;22;20181;-88
2023/04/05 03:37:42;;;;;;;4.28;3.85;;;;;;;;;;6230283;23;20212;-86
2023/04/05 03:40:47;;;;;;;;;;;;;;;;;;;;;
2023/04/05 03:43:19;;;;;;;6.80;3.75;;;;;;;;;;6226798;23;20193;-87
2023/04/05 03:48:47;;;;;;;3.70;3.40;;;;;;;;;;6232231;23;20180;-87
2023/04/05 03:51:23;;;;;;;6.20;4.07;;;;;;;;;;6227477;23;20234;-87
2023/04/05 03:53:51;;;;;;;5.70;3.78;;;;;;;;;;6236234;22;20212;-81
2023/04/05 03:56:18;;;;;;;4.65;3.45;;;;;;;;;;6260352;22;20167;-83
2023/04/05 03:58:46;;;;;;;4.82;4.15;;;;;;;;;;6250218;23;20228;-82
2023/04/05 04:01:15;;;;;;;5.50;3.47;;;2.50;1.00;;;;;;6250884;23;20215;-82
2023/04/05 04:03:42;;;;;;;7.15;3.85;;;;;;;;;;6236443;23;20537;-83
2023/04/05 04:06:10;;;;;;;5.05;3.70;;;;;;;;;;6220590;23;20448;-85
2023/04/05 04:08:38;;;;;;;4.90;3.65;;;;;;;;;;6222491;23;20196;-84
2023/04/05 04:11:06;;;;;;;6.00;3.58;;;;;;;;;;6228837;23;20172;-83
2023/04/05 04:13:33;;;;;;;4.28;3.20;;;;;;;;;;6230630;23;20208;-83
2023/04/05 04:16:06;;;;;;;8.43;4.35;;;;;;;;;;6227456;23;20176;-84
2023/04/05 04:18:35;;;;;;;7.10;3.67;;;;;;;;;;6223017;23;20165;-84
2023/04/05 04:21:05;;;;;;;5.07;3.50;;;;;;;;;;6222809;23;20692;-84
2023/04/05 04:23:33;;;;;;;8.35;3.83;;;2.70;99.90;;;;;;6223703;23;20232;-84
2023/04/05 04:26:00;;;;;;;4.80;4.10;;;2.90;1.00;;;;;;6222323;23;20180;-83
2023/04/05 04:28:27;;;;;;;5.80;3.30;;;2.80;1.00;;;;;;6223381;23;20207;-83
2023/04/05 04:30:55;;;;;;;6.28;3.65;;;2.60;1.00;;;;;;6225016;23;20172;-84
2023/04/05 04:33:23;;;;;;;6.65;4.43;;;;;;;;;;6235445;23;20206;-83
2023/04/05 04:35:53;;;;;;;5.95;5.03;;;2.80;99.90;;;;;;6245261;22;20203;-83
2023/04/05 04:38:20;;;;;;;5.68;4.20;;;;;;;;;;6230116;23;20162;-82
2023/04/05 04:40:52;;;;;;;9.35;5.28;;;;;;;;;;6230120;23;20197;-83
2023/04/05 04:43:26;;;;;;;11.25;4.50;;;3.10;1.00;;;;;;6226707;23;20194;-84
2023/04/05 04:45:56;;;;;;;7.47;3.95;;;;;;;;;;6224735;23;20184;-83
2023/04/05 04:48:23;;;;;;;6.05;3.70;;;;;;;;;;6224903;23;20190;-83
2023/04/05 04:50:51;;;;;;;5.40;3.88;;;2.40;1.00;;;;;;6231575;23;20223;-84
2023/04/05 04:53:18;;;;;;;7.00;4.03;;;2.70;99.90;;;;;;6231065;23;20630;-84
2023/04/05 04:55:48;;;;;;;4.63;3.85;;;2.70;99.90;;;;;;6226552;23;20178;-85
2023/04/05 04:58:16;;;;;;;7.95;4.05;;;;;;;;;;6225270;23;20165;-83
2023/04/05 05:00:47;;;;;;;4.15;3.22;;;2.70;99.90;;;;;;6224263;23;20206;-84
2023/04/05 05:03:15;;;;;;;6.72;4.13;;;;;;;;;;6223843;23;20206;-84
2023/04/05 05:05:43;;;;;;;9.57;3.95;;;;;;;;;;6225045;23;20201;-84
2023/04/05 05:08:11;;;;;;;9.98;6.18;;;;;;;;;;6227960;23;20180;-84
2023/04/05 05:10:40;;;;;;;7.38;3.90;;;3.20;1.00;;;;;;6223441;23;20236;-85
2023/04/05 05:13:08;;;;;;;12.63;6.20;;;;;;;;;;6224489;23;20249;-84
2023/04/05 05:15:37;;;;;;;11.55;8.07;;;;;;;;;;6229819;23;20197;-84
2023/04/05 05:18:07;;;;;;;8.48;3.60;;;;;;;;;;6236854;23;20256;-85
2023/04/05 05:20:35;;;;;;;6.05;3.10;;;;;;;;;;6231679;23;20244;-85
2023/04/05 05:23:06;;;;;;;4.95;4.10;;;;;;;;;;6225081;23;20200;-85
2023/04/05 05:25:42;;;;;;;6.20;3.35;;;;;;;;;;6225128;23;20557;-84
2023/04/05 05:28:10;;;;;;;7.32;3.83;;;;;;;;;;6224970;23;20153;-84
2023/04/05 05:30:40;;;;;;;5.20;3.28;;;;;;;;;;6225461;23;20209;-85
2023/04/05 05:33:11;;;;;;;5.03;3.10;;;;;;;;;;6226236;23;20200;-84
2023/04/05 05:35:39;;;;;;;6.40;3.45;;;;;;;;;;6225027;23;20159;-84
2023/04/05 05:38:06;;;;;;;4.70;3.95;;;;;;;;;;6235673;23;20179;-82
2023/04/05 05:40:35;;;;;;;5.95;4.05;;;;;;;;;;6232466;23;20201;-85
2023/04/05 05:43:03;;;;;;;4.55;3.80;;;;;;;;;;6228818;23;20262;-84
2023/04/05 05:45:31;;;;;;;4.32;2.60;;;;;;;;;;6225059;23;20188;-84
2023/04/05 05:48:01;;;;;;;7.10;4.13;;;3.10;99.90;;;;;;6224811;23;20184;-84
2023/04/05 05:50:32;;;;;;;4.30;3.88;;;3.30;99.90;;;;;;6225018;23;20252;-84
2023/04/05 05:52:59;;;;;;;5.10;4.03;;;3.20;99.90;;;;;;6225730;23;20240;-84
2023/04/05 05:55:26;;;;;;;8.30;4.63;;;;;;;;;;6225193;23;20195;-85
2023/04/05 05:57:54;;;;;;;7.32;3.83;;;2.90;1.00;;;;;;6225887;23;20168;-84
2023/04/05 06:00:21;;;;;;;7.65;4.60;;;3.20;1.00;;;;;;6224394;23;20713;-83
2023/04/05 06:02:49;;;;;;;7.05;3.63;;;3.30;99.90;;;;;;6225687;23;20277;-85
2023/04/05 06:05:16;;;;;;;6.32;4.05;;;3.20;99.90;;;;;;6230748;23;20188;-85
2023/04/05 06:07:45;;;;;;;12.05;4.15;;;3.20;1.00;;;;;;6229296;23;20237;-83
2023/04/05 06:10:12;;;;;;;8.63;4.13;;;3.30;1.00;;;;;;6228973;23;20200;-84
2023/04/05 06:12:45;;;;;;;5.95;3.58;;;3.70;99.90;;;;;;6227325;23;20205;-86
2023/04/05 06:15:13;;;;;;;5.93;3.38;;;3.70;99.90;;;;;;6235379;23;20157;-85
2023/04/05 06:17:41;;;;;;;8.63;4.30;;;;;;;;;;6242872;23;20198;-84
2023/04/05 06:20:11;;;;;;;5.15;3.90;;;3.80;1.00;;;;;;6243716;22;20160;-83
2023/04/05 06:22:43;;;;;;;7.35;4.50;;;3.80;1.00;;;;;;6231720;23;20236;-83
2023/04/05 06:25:11;;;;;;;4.95;3.22;;;4.30;99.90;;;;;;6231817;23;20184;-84
2023/04/05 06:27:38;;;;;;;4.13;3.40;;;3.30;1.00;;;;;;6228905;23;20180;-84
2023/04/05 06:30:06;;;;;;;8.55;4.82;;;3.80;1.00;;;;;;6225516;23;20497;-85
2023/04/05 06:32:35;;;;;;;9.55;4.22;;;3.60;1.00;;;;;;6225290;23;20238;-85
2023/04/05 06:35:02;;;;;;;4.68;3.58;;;3.80;99.90;;;;;;6224827;23;20181;-85
2023/04/05 06:37:29;;;;;;;6.80;4.50;;;4.10;1.00;;;;;;6223709;23;20352;-84
2023/04/05 06:39:56;;;;;;;8.50;5.00;;;4.10;1.00;;;;;;6224167;23;20209;-84
2023/04/05 06:42:23;;;;;;;8.02;4.78;;;3.50;1.00;;;;;;6223730;23;20228;-84
2023/04/05 06:44:57;;;;;;;7.50;4.90;;;;;;;;;;6222989;23;20204;-86
2023/04/05 06:47:24;;;;;;;7.25;4.20;;;4.20;1.00;;;;;;6224705;23;20205;-82
2023/04/05 06:49:52;;;;;;;8.75;4.57;;;;;;;;;;6225885;23;20210;-84
2023/04/05 06:52:19;;;;;;;7.13;4.50;;;3.40;1.00;;;;;;6224774;23;20598;-83
2023/04/05 06:54:46;;;;;;;13.10;4.82;;;4.10;99.90;;;;;;6227704;23;20228;-84
2023/04/05 06:57:13;;;;;;;8.55;5.43;;;4.10;1.00;;;;;;6226059;23;20220;-84
2023/04/05 06:59:39;;;;;;;5.28;4.78;;;4.30;1.00;;;;;;6224300;23;20228;-84
2023/04/05 07:02:12;;;;;;;6.10;4.53;;;4.10;99.90;;;;;;6226007;23;20280;-83
2023/04/05 07:04:40;;;;;;;16.83;6.28;;;4.00;99.90;;;;;;6229793;23;20307;-84
2023/04/05 07:07:08;;;;;;;12.75;4.97;;;4.30;99.90;;;;;;6232191;23;20180;-84
2023/04/05 07:09:35;;;;;;;9.38;5.25;;;3.90;1.00;;;;;;6234860;23;20184;-83
2023/04/05 07:12:04;;;;;;;7.18;5.22;;;3.80;1.00;;;;;;6225033;23;20208;-83
2023/04/05 07:14:31;;;;;;;10.52;5.28;;;4.30;1.00;;;;;;6223601;23;20208;-83
2023/04/05 07:16:58;;;;;;;6.97;4.85;;;4.00;1.00;;;;;;6227482;23;20206;-84
2023/04/05 07:19:26;;;;;;;7.90;4.93;;;4.10;1.00;;;;;;6226183;23;20207;-85
2023/04/05 07:21:53;;;;;;;6.13;4.90;;;4.50;1.00;;;;;;6225585;23;20244;-84
2023/04/05 07:24:21;;;;;;;11.48;5.85;;;4.20;99.90;;;;;;6226207;23;20208;-84
2023/04/05 07:26:48;;;;;;;8.85;4.95;;;4.50;1.00;;;;;;6230632;23;20182;-84
2023/04/05 07:29:15;;;;;;;12.35;5.82;;;4.50;1.00;;;;;;6229666;23;20180;-84
2023/04/05 07:31:42;;;;;;;8.15;6.28;;;5.00;1.00;;;;;;6225107;23;20173;-84
2023/04/05 07:34:09;;;;;;;10.32;5.60;;;4.70;99.90;;;;;;6239029;23;20204;-83
2023/04/05 07:36:36;;;;;;;8.35;5.13;;;4.80;99.90;;;;;;6241017;22;20213;-84
2023/04/05 07:39:04;;;;;;;12.40;5.45;;;4.90;99.90;;;;;;6226294;23;20188;-83
2023/04/05 07:41:34;;;;;;;8.63;5.22;;;5.00;99.90;;;;;;6224381;23;20220;-84
2023/04/05 07:44:01;;;;;;;7.07;5.55;;;4.70;99.90;;;;;;6233250;23;20247;-82
2023/04/05 07:46:28;;;;;;;7.47;5.70;;;4.90;1.00;;;;;;6244017;22;20178;-82
2023/04/05 07:48:57;;;;;;;9.85;6.40;;;5.60;1.00;;;;;;6243998;22;20211;-81
2023/04/05 07:51:26;;;;;;;8.38;5.70;;;5.40;1.00;;;;;;6243105;22;20193;-82
2023/04/05 07:53:53;;;;;;;8.70;4.60;;;5.10;99.90;;;;;;6225560;23;20566;-83
2023/04/05 07:56:20;;;;;;;7.03;5.40;;;6.40;99.90;;;;;;6223094;23;20209;-84
2023/04/05 07:58:50;;;;;;;9.43;5.53;;;4.80;1.00;;;;;;6219791;23;20179;-83
2023/04/05 08:01:17;;;;;;;6.10;5.50;;;5.00;99.90;;;;;;6218948;23;20185;-83
2023/04/05 08:03:44;;;;;;;8.27;4.43;;;5.00;99.90;;;;;;6218484;23;20224;-84
2023/04/05 08:06:12;;;;;;;8.23;4.90;;;4.80;99.90;;;;;;6222208;23;20212;-84
2023/04/05 08:08:39;;;;;;;9.57;5.05;;;4.60;99.90;;;;;;6225960;23;20218;-84
2023/04/05 08:11:06;;;;;;;6.45;5.05;;;5.10;1.00;;;;;;6223433;23;20208;-83
2023/04/05 08:13:33;;;;;;;6.47;5.18;;;4.90;99.90;;;;;;6230669;23;20212;-82
2023/04/05 08:16:01;;;;;;;17.55;6.07;;;4.90;99.90;;;;;;6231225;23;20209;-83
2023/04/05 08:18:28;;;;;;;9.35;5.53;;;5.00;99.90;;;;;;6229889;23;20182;-83
2023/04/05 08:20:56;;;;;;;9.85;5.70;;;5.40;1.00;;;;;;6223197;23;20196;-81
2023/04/05 08:23:23;;;;;;;8.45;6.00;;;5.20;1.00;;;;;;6221790;23;20277;-83
2023/04/05 08:25:50;;;;;;;12.43;4.28;;;5.30;99.90;;;;;;6222352;23;20638;-83
2023/04/05 08:28:17;;;;;;;11.13;4.88;;;5.10;99.90;;;;;;6228774;23;20264;-84
2023/04/05 08:30:44;;;;;;;9.57;5.07;;;5.70;1.00;;;;;;6228042;23;20177;-84
2023/04/05 08:33:13;;;;;;;9.10;5.93;;;5.50;99.90;;;;;;6228570;23;20248;-84
2023/04/05 08:35:41;;;;;;;8.95;5.35;;;4.90;1.00;;;;;;6226664;23;20558;-85
2023/04/05 08:38:08;;;;;;;4.88;4.32;;;5.20;99.90;;;;;;6222723;23;20192;-84
2023/04/05 08:40:41;;;;;;;4.63;4.00;;;5.20;99.90;;;;;;6224694;23;20269;-84
2023/04/05 08:43:12;;;;;;;5.25;4.22;;;5.40;99.90;;;;;;6222429;23;20205;-84
2023/04/05 08:45:46;;;;;;;9.75;4.47;;;5.20;1.00;;;;;;6225830;23;20186;-84
2023/04/05 08:48:14;;;;;;;5.22;4.20;;;5.40;99.90;;;;;;6234408;22;20181;-84
2023/04/05 08:50:41;;;;;;;10.43;3.97;;;5.40;99.90;;;;;;6233523;23;20181;-84
2023/04/05 08:53:10;;;;;;;7.47;4.25;;;5.50;99.90;;;;;;6234140;23;20653;-83
2023/04/05 08:55:37;;;;;;;6.00;4.38;;;5.30;1.00;;;;;;6229584;23;20154;-84
2023/04/05 08:58:12;;;;;;;8.52;4.78;;;5.40;99.90;;;;;;6240432;23;20182;-83
2023/04/05 09:00:41;;;;;;;7.30;4.00;;;5.50;99.90;;;;;;6232671;23;20193;-84
2023/04/05 09:03:12;;;;;;;10.77;4.75;;;5.80;1.00;;;;;;6225178;23;20201;-83
2023/04/05 09:05:42;;;;;;;9.13;4.72;;;5.70;99.90;;;;;;6224526;23;20165;-84
2023/04/05 09:08:10;;;;;;;5.00;4.10;;;5.80;99.90;;;;;;6224202;23;20238;-84
2023/04/05 09:10:37;;;;;;;9.10;4.70;;;5.90;99.90;;;;;;6223534;23;20182;-85
2023/04/05 09:13:04;;;;;;;5.47;4.50;;;5.90;99.90;;;;;;6224061;23;20205;-82
2023/04/05 09:15:31;;;;;;;6.45;5.18;;;5.80;99.90;;;;;;6221395;23;20196;-83
2023/04/05 09:17:58;;;;;;;5.55;3.85;;;6.00;1.00;;;;;;6221989;23;20185;-83
2023/04/05 09:20:25;;;;;;;8.15;6.03;;;6.20;1.00;;;;;;6223945;23;20236;-83
2023/04/05 09:22:55;;;;;;;7.60;4.10;;;6.40;99.90;;;;;;6224370;23;20201;-84
2023/04/05 09:25:37;;;;;;;6.43;4.00;;;6.50;99.90;;;;;;6226761;23;20296;-84
2023/04/05 09:28:05;;;;;;;6.10;4.07;;;6.30;99.90;;;;;;6225342;23;20250;-84
2023/04/05 09:30:33;;;;;;;8.13;4.93;;;6.40;99.90;;;;;;6226231;23;20181;-84
2023/04/05 09:33:00;;;;;;;9.13;4.60;;;6.60;99.90;;;;;;6226062;23;20254;-84
2023/04/05 09:35:28;;;;;;;5.70;4.57;;;6.60;99.90;;;;;;6226831;23;20182;-84
2023/04/05 09:37:59;;;;;;;6.47;4.78;;;6.60;1.00;;;;;;6228816;23;20261;-84
2023/04/05 09:40:42;;;;;;;5.35;4.72;;;6.60;99.90;;;;;;6226296;23;20169;-87
2023/04/05 09:43:09;;;;;;;6.03;5.43;;;6.40;99.90;;;;;;6224322;23;20208;-84
2023/04/05 09:45:40;;;;;;;7.88;4.82;;;6.40;99.90;;;;;;6225780;23;20177;-84
2023/04/05 09:48:12;;;;;;;6.63;5.03;;;6.90;1.00;;;;;;6226369;23;20231;-88
2023/04/05 09:50:41;;;;;;;8.45;6.38;;;6.20;99.90;;;;;;6228957;23;20189;-86
2023/04/05 10:43:58;;;;;;;;;;;;;;;;;;;;;
2023/04/05 11:13:09;;;;;;;4.53;3.63;;;7.20;99.90;;;;;;5856663;24;20245;-86
2023/04/05 11:15:39;;;;;;;4.30;3.90;;;7.10;99.90;;;;;;5934411;23;20179;-86
2023/04/05 11:18:10;;;;;;;4.82;4.00;;;7.00;99.90;;;;;;6114297;23;20411;-88
2023/04/05 11:20:42;;;;;;;4.75;4.35;;;6.80;99.90;;;;;;6156973;23;20180;-87
2023/04/05 11:23:09;;;;;;;4.78;4.03;;;6.90;1.00;;;;;;6176681;23;20176;-86
2023/04/05 11:25:39;;;;;;;6.95;4.28;;;7.30;1.00;;;;;;6183357;23;20180;-86
2023/04/05 11:28:08;;;;;;;9.00;5.85;;;7.00;1.00;;;;;;6182424;23;20180;-86
2023/04/05 11:30:50;;;;;;;4.30;4.00;;;7.10;1.00;;;;;;6171256;23;20184;-85
2023/04/05 11:33:36;;;;;;;4.68;4.22;;;7.20;1.00;;;;;;6167536;23;20204;-87
2023/04/05 11:36:03;;;;;;;8.45;4.32;;;;;;;;;;6168117;23;20207;-86
2023/04/05 11:38:30;;;;;;;4.50;3.55;;;7.60;1.00;;;;;;6172087;23;20184;-86
2023/04/05 11:41:06;;;;;;;4.97;4.07;;;8.10;99.90;;;;;;6167080;23;20186;-87
2023/04/05 11:43:37;;;;;;;5.63;3.80;;;8.20;1.00;;;;;;6166156;23;20428;-88
2023/04/05 11:46:04;;;;;;;4.63;3.67;;;;;;;;;;6169280;23;20171;-87
2023/04/05 11:48:31;;;;;;;7.30;3.30;;;;;;;;;;6172984;23;20769;-86
2023/04/05 11:50:58;;;;;;;3.87;3.50;;;7.20;10.30;;;;;;6176066;23;20439;-85
2023/04/05 11:53:25;;;;;;;4.93;4.33;;;7.60;10.90;;;;;;6177482;23;20482;-85
2023/04/05 11:55:54;;;;;;;4.50;3.37;;;7.80;99.90;;;;;;6178636;23;20419;-86
2023/04/05 11:58:22;;;;;;;5.80;3.57;;;7.70;1.00;;;;;;6177740;23;20389;-86
2023/04/05 12:00:59;;;;;;;6.93;4.40;;;7.30;1.00;;;;;;6179071;23;20407;-86
2023/04/05 12:03:28;;;;;;;3.80;3.50;;;8.00;18.40;;;;;;6179770;23;20420;-87
2023/04/05 12:05:57;;;;;;;6.60;4.87;;;7.80;1.00;;;;;;6180063;23;20386;-88
2023/04/05 12:08:37;;;;;;;5.07;3.95;;;7.60;1.00;;;;;;6180122;23;20432;-86
2023/04/05 12:11:07;;;;;;;4.45;4.05;;;7.60;49.30;;;;;;6179249;23;20175;-87
2023/04/05 12:13:35;;;;;;;4.30;3.83;;;7.70;1.00;;;;;;6180763;23;20230;-86
2023/04/05 12:16:04;;;;;;;5.10;3.60;;;7.70;1.00;;;;;;6184103;23;20441;-85
2023/04/05 12:18:33;;;;;;;5.77;4.13;;;7.30;23.30;;;;;;6183657;23;20426;-86
2023/04/05 12:21:01;;;;;;;5.22;3.80;;;7.20;1.00;;;;;;6179542;23;20408;-87
2023/04/05 12:23:28;;;;;;;4.30;3.90;;;7.70;9.20;;;;;;6169913;23;20206;-87
2023/04/05 12:25:56;;;;;;;3.72;3.25;;;7.20;1.00;;;;;;6165709;23;20255;-86
2023/04/05 12:28:24;;;;;;;7.57;3.60;;;7.00;14.30;;;;;;6165441;23;20551;-86
2023/04/05 12:30:51;;;;;;;4.45;4.05;;;7.00;1.00;;;;;;6167111;23;20393;-86
2023/04/05 12:33:31;;;;;;;3.97;3.47;;;7.40;1.00;;;;;;6166342;23;20596;-87
2023/04/05 12:35:58;;;;;;;4.93;3.35;;;;;;;;;;6173154;23;20167;-88
2023/04/05 12:38:27;;;;;;;4.85;4.38;;;7.80;1.00;;;;;;6170918;23;20183;-84
2023/04/05 12:40:54;;;;;;;3.63;3.33;;;7.80;1.00;;;;;;6164370;23;20183;-84
2023/04/05 12:43:21;;;;;;;6.35;4.53;;;7.60;36.40;;;;;;6162577;23;20228;-85
2023/04/05 12:45:49;;;;;;;5.20;3.95;;;7.70;1.00;;;;;;6162849;23;20183;-82
2023/04/05 12:48:22;;;;;;;4.03;3.60;;;7.40;1.00;;;;;;6162902;23;20271;-84
2023/04/05 12:50:52;;;;;;;3.70;3.40;;;7.40;99.90;;;;;;6171979;23;20223;-85
2023/04/05 12:53:20;;;;;;;5.28;3.88;;;7.50;99.90;;;;;;6175742;23;20202;-83
2023/04/05 12:55:51;;;;;;;5.22;3.95;;;7.50;99.90;;;;;;6174316;23;20184;-83
2023/04/05 12:58:19;;;;;;;5.88;4.47;;;7.50;99.90;;;;;;6177049;23;20573;-84
2023/04/05 13:00:46;;;;;;;6.22;3.35;;;7.80;1.00;;;;;;6171224;23;20235;-84
2023/04/05 13:03:19;;;;;;;5.05;4.00;;;7.60;1.00;;;;;;6168918;23;20261;-84
2023/04/05 13:05:47;;;;;;;6.25;3.55;;;7.40;1.00;;;;;;6167311;23;20183;-84
2023/04/05 13:08:17;;;;;;;4.93;3.67;;;7.40;1.00;;;;;;6167039;23;20211;-84
2023/04/05 13:10:44;;;;;;;3.42;3.10;;;7.60;99.90;;;;;;6166903;23;20186;-84
2023/04/05 13:13:12;;;;;;;4.30;3.90;;;;;;;;;;6166100;23;20606;-84
2023/04/05 13:15:39;;;;;;;4.17;3.70;;;;;;;;;;6169780;23;20177;-83
2023/04/05 13:18:07;;;;;;;5.00;3.50;;;;;;;;;;6172502;23;20478;-85
2023/04/05 13:20:34;;;;;;;5.97;4.30;;;7.70;1.00;;;;;;6173424;23;20640;-83
2023/04/05 13:23:01;;;;;;;4.00;2.83;;;;;;;;;;6176046;23;20482;-83
2023/04/05 13:25:30;;;;;;;3.65;3.35;;;7.80;99.90;;;;;;6177603;23;20184;-83
2023/04/05 13:27:57;;;;;;;4.70;3.60;;;;;;;;;;6177852;23;20173;-83
2023/04/05 13:30:24;;;;;;;3.53;3.23;;;7.70;1.00;;;;;;6178080;23;20173;-83
2023/04/05 13:32:52;;;;;;;6.57;3.17;;;;;;;;;;6177543;23;20486;-83
2023/04/05 13:35:19;;;;;;;5.63;3.65;;;8.40;52.80;;;;;;6176871;23;20422;-84
2023/04/05 13:37:48;;;;;;;4.30;3.28;;;;;;;;;;6169108;23;20186;-84
2023/04/05 13:40:16;;;;;;;6.93;4.70;;;7.80;64.50;;;;;;6166814;23;20258;-86
2023/04/05 13:42:44;;;;;;;6.80;3.33;;;7.70;1.00;;;;;;6165041;23;20510;-85
2023/04/05 13:45:12;;;;;;;4.43;3.10;;;7.70;1.00;;;;;;6164975;23;20431;-84
2023/04/05 13:47:38;;;;;;;5.67;2.70;;;8.10;50.70;;;;;;6165579;23;20419;-84
2023/04/05 13:50:06;;;;;;;3.57;3.27;;;8.80;1.00;;;;;;6163051;23;20412;-83
2023/04/05 13:52:34;;;;;;;4.83;4.00;;;;;;;;;;6171031;23;20395;-83
2023/04/05 13:55:00;;;;;;;3.83;3.37;;;8.70;45.50;;;;;;6171345;23;20467;-84
2023/04/05 13:57:27;;;;;;;3.47;3.17;;;8.60;1.00;;;;;;6170646;23;20431;-84
2023/04/05 13:59:55;;;;;;;3.80;3.40;;;8.70;1.00;;;;;;6183450;23;20364;-83
2023/04/05 14:02:24;;;;;;;4.33;3.23;;;8.50;99.90;;;;;;6182430;23;20541;-83
2023/04/05 14:04:51;;;;;;;6.80;3.50;;;7.40;99.90;;;;;;6172211;23;20492;-85
2023/04/05 14:07:18;;;;;;;4.00;3.60;;;8.00;1.00;;;;;;6164199;23;20426;-84
2023/04/05 14:09:45;;;;;;;3.10;2.58;;;7.90;99.90;;;;;;6162553;23;20506;-84
2023/04/05 14:12:13;;;;;;;5.22;3.25;;;7.70;99.90;;;;;;6161838;23;20671;-84
2023/04/05 14:14:40;;;;;;;3.42;3.13;;;;;;;;;;6162873;23;20201;-85
2023/04/05 14:17:11;;;;;;;3.67;3.27;;;7.60;75.50;;;;;;6164079;23;20181;-85
2023/04/05 14:19:38;;;;;;;3.50;3.20;;;8.20;99.90;;;;;;6164074;23;20396;-85
2023/04/05 14:22:05;;;;;;;4.90;3.28;;;8.20;1.00;;;;;;6165574;23;20184;-84
2023/04/05 14:24:32;;;;;;;6.32;4.07;;;7.80;1.00;;;;;;6164610;23;20201;-86
2023/04/05 14:26:59;;;;;;;5.50;3.80;;;7.80;1.00;;;;;;6166324;23;20200;-84
2023/04/05 14:29:27;;;;;;;7.37;4.43;;;7.50;45.80;;;;;;6165047;23;20260;-85
2023/04/05 14:31:55;;;;;;;4.15;3.75;;;8.00;1.00;;;;;;6165530;23;20411;-84
2023/04/05 14:34:24;;;;;;;5.43;3.50;;;;;;;;;;6169033;23;20255;-85
2023/04/05 14:36:51;;;;;;;3.70;3.40;;;8.30;1.00;;;;;;6179330;23;20176;-83
2023/04/05 14:39:18;;;;;;;6.00;4.53;;;7.60;99.90;;;;;;6181131;23;20211;-84
2023/04/05 14:41:51;;;;;;;4.70;4.20;;;8.50;1.00;;;;;;6171742;23;20811;-84
2023/04/05 14:44:18;;;;;;;4.57;3.23;;;8.40;1.00;;;;;;6167123;23;20443;-85
2023/04/05 14:46:46;;;;;;;4.37;3.63;;;;;;;;;;6167719;23;20490;-84
2023/04/05 14:49:13;;;;;;;5.87;3.67;;;;;;;;;;6165858;23;20409;-84
2023/04/05 14:51:44;;;;;;;9.57;3.87;;;7.60;99.90;;;;;;6165267;23;20407;-84
2023/04/05 14:54:12;;;;;;;4.38;3.60;;;;;;;;;;6164927;23;20515;-84
2023/04/05 14:56:42;;;;;;;8.57;4.93;;;;;;;;;;6165842;23;20177;-84
2023/04/05 14:59:09;;;;;;;4.10;3.70;;;8.10;1.00;;;;;;6165592;23;20479;-84
2023/04/05 15:01:37;;;;;;;4.10;3.40;;;;;;;;;;6165210;23;20870;-84
2023/04/05 15:04:04;;;;;;;5.70;4.23;;;;;;;;;;6165032;23;20432;-84
2023/04/05 15:06:31;;;;;;;5.03;3.10;;;8.10;1.00;;;;;;6164544;23;20815;-84